Time;durP1;ratioP1;P1;durP2;ratioP2;P2;SDS_P1;SDS_P2;PMS_P1;PMS_P2;Temp;Humidity;BMP_temperature;BMP_pressure;BME280_temperature;BME280_humidity;BME280_pressure;Samples;Min_cycle;Max_cycle;Signal;HPM_P1;HPM_P2
2022/12/03 00:00:36;;;;;;;16.50;8.57;;;0.10;99.90;;;;;;5012862;28;20550;-65
2022/12/03 00:03:04;;;;;;;14.17;8.10;;;0.10;99.90;;;;;;5009840;28;20569;-63
2022/12/03 00:05:31;;;;;;;15.83;7.80;;;0.00;99.90;;;;;;5011251;28;20223;-65
2022/12/03 00:07:58;;;;;;;15.70;8.80;;;0.00;99.90;;;;;;5013252;28;20679;-64
2022/12/03 00:10:25;;;;;;;17.83;8.47;;;0.00;99.90;;;;;;5013553;28;20217;-64
2022/12/03 00:12:52;;;;;;;15.80;8.27;;;0.00;99.90;;;;;;5013594;28;20568;-63
2022/12/03 00:15:18;;;;;;;13.63;7.90;;;0.00;99.90;;;;;;5012738;28;20203;-64
2022/12/03 00:17:45;;;;;;;13.97;8.53;;;0.00;99.90;;;;;;5012712;28;20211;-65
2022/12/03 00:20:18;;;;;;;14.70;8.40;;;0.00;99.90;;;;;;5013196;28;20574;-65
2022/12/03 00:22:45;;;;;;;17.23;8.70;;;0.00;99.90;;;;;;5013294;28;20191;-64
2022/12/03 00:25:12;;;;;;;15.90;7.50;;;0.00;99.90;;;;;;5010973;28;20234;-65
2022/12/03 00:27:38;;;;;;;16.03;8.37;;;0.00;99.90;;;;;;5013043;28;20616;-65
2022/12/03 00:30:07;;;;;;;12.27;7.37;;;0.00;99.90;;;;;;5013333;28;20213;-66
2022/12/03 00:32:33;;;;;;;15.27;8.00;;;0.00;99.90;;;;;;5012878;28;20209;-65
2022/12/03 00:35:00;;;;;;;15.00;7.80;;;0.00;99.90;;;;;;5012464;28;20203;-66
2022/12/03 00:37:28;;;;;;;17.67;7.80;;;0.00;99.90;;;;;;5013861;28;20202;-65
2022/12/03 00:39:55;;;;;;;12.37;7.60;;;0.00;99.90;;;;;;5013321;28;20221;-64
2022/12/03 00:42:22;;;;;;;12.97;7.57;;;0.00;99.90;;;;;;5013954;28;20576;-64
2022/12/03 00:44:49;;;;;;;12.30;7.63;;;0.00;99.90;;;;;;5009761;28;20206;-67
2022/12/03 00:47:15;;;;;;;17.40;8.00;;;0.00;99.90;;;;;;5009714;28;20245;-65
2022/12/03 00:49:42;;;;;;;11.97;6.90;;;0.00;99.90;;;;;;5013081;28;20203;-64
2022/12/03 00:52:09;;;;;;;16.33;8.03;;;0.00;99.90;;;;;;5012497;28;20297;-64
2022/12/03 00:54:37;;;;;;;13.63;7.40;;;0.00;99.90;;;;;;5011614;28;20236;-69
2022/12/03 00:57:04;;;;;;;13.70;8.00;;;-0.10;99.90;;;;;;5013361;28;20555;-70
2022/12/03 00:59:30;;;;;;;13.43;7.20;;;-0.10;99.90;;;;;;5011906;28;20198;-69
2022/12/03 01:01:58;;;;;;;13.17;7.80;;;-0.10;99.90;;;;;;5012040;28;20209;-69
2022/12/03 01:04:24;;;;;;;14.27;7.23;;;-0.10;99.90;;;;;;5011434;28;20217;-69
2022/12/03 01:06:51;;;;;;;13.63;7.60;;;0.00;99.90;;;;;;5012806;28;20717;-68
2022/12/03 01:09:18;;;;;;;12.90;7.50;;;0.00;99.90;;;;;;5012220;28;20210;-65
2022/12/03 01:11:46;;;;;;;17.50;8.40;;;0.00;99.90;;;;;;5012488;28;20207;-64
2022/12/03 01:14:15;;;;;;;14.03;8.10;;;-0.10;99.90;;;;;;5009788;28;20569;-65
2022/12/03 01:16:42;;;;;;;11.57;7.10;;;-0.10;99.90;;;;;;5012618;28;20198;-65
2022/12/03 01:19:14;;;;;;;13.83;7.33;;;-0.10;99.90;;;;;;5012243;28;20206;-67
2022/12/03 01:21:41;;;;;;;13.47;7.13;;;-0.10;99.90;;;;;;5012570;28;20643;-65
2022/12/03 01:24:08;;;;;;;21.10;7.80;;;-0.10;99.90;;;;;;5009743;28;20265;-65
2022/12/03 01:26:35;;;;;;;12.47;7.60;;;-0.10;99.90;;;;;;5011470;28;20230;-65
2022/12/03 01:29:03;;;;;;;14.73;7.53;;;-0.10;99.90;;;;;;5011187;28;20207;-66
2022/12/03 01:34:14;;;;;;;15.47;7.47;;;-0.10;99.90;;;;;;5012175;28;20233;-65
2022/12/03 01:36:41;;;;;;;16.20;7.43;;;-0.10;99.90;;;;;;5012117;28;20663;-65
2022/12/03 01:39:08;;;;;;;13.57;7.47;;;-0.10;99.90;;;;;;5012280;28;20206;-65
2022/12/03 01:41:36;;;;;;;13.00;7.27;;;-0.10;99.90;;;;;;5011334;28;20214;-65
2022/12/03 01:44:07;;;;;;;11.80;7.07;;;-0.10;99.90;;;;;;5009509;28;20213;-67
2022/12/03 01:46:40;;;;;;;13.23;7.70;;;-0.10;99.90;;;;;;5011747;28;20330;-66
2022/12/03 01:49:13;;;;;;;11.53;6.97;;;-0.10;99.90;;;;;;5012371;28;20203;-66
2022/12/03 01:51:40;;;;;;;15.37;7.70;;;-0.10;99.90;;;;;;5010242;28;20685;-65
2022/12/03 01:54:14;;;;;;;14.27;7.70;;;-0.10;99.90;;;;;;5011402;28;20206;-65
2022/12/03 01:56:41;;;;;;;15.80;7.27;;;-0.10;99.90;;;;;;5010751;28;20211;-65
2022/12/03 01:59:09;;;;;;;11.60;6.60;;;-0.10;99.90;;;;;;5011864;28;20217;-65
2022/12/03 02:01:36;;;;;;;14.50;7.03;;;-0.10;99.90;;;;;;5011000;28;20213;-64
2022/12/03 02:04:03;;;;;;;12.57;7.10;;;-0.10;99.90;;;;;;5011049;28;20241;-64
2022/12/03 02:06:30;;;;;;;14.43;6.80;;;-0.10;99.90;;;;;;5014722;28;20229;-66
2022/12/03 02:08:58;;;;;;;15.03;6.90;;;-0.10;99.90;;;;;;5013577;28;20579;-63
2022/12/03 02:11:29;;;;;;;13.33;7.00;;;-0.10;99.90;;;;;;5014967;28;20206;-64
2022/12/03 02:14:00;;;;;;;11.47;6.67;;;-0.10;99.90;;;;;;5015363;28;20205;-65
2022/12/03 05:50:29;;;;;;;13.73;7.67;;;-1.00;99.90;;;;;;5120771;27;20934;-68
2022/12/03 05:52:56;;;;;;;13.60;7.33;;;-0.50;99.90;;;;;;5083081;28;20196;-69
2022/12/03 05:55:23;;;;;;;13.80;7.57;;;-0.50;99.90;;;;;;5070085;28;20200;-70
2022/12/03 05:57:51;;;;;;;13.80;7.53;;;-0.50;99.90;;;;;;5068314;28;20209;-68
2022/12/03 06:00:20;;;;;;;16.40;8.37;;;-0.50;99.90;;;;;;5068983;28;20204;-69
2022/12/03 06:02:47;;;;;;;14.07;7.83;;;-0.40;99.90;;;;;;5068232;28;20605;-68
2022/12/03 06:05:14;;;;;;;13.57;7.70;;;-0.40;99.90;;;;;;5068308;28;20201;-67
2022/12/03 06:07:42;;;;;;;13.43;7.87;;;-0.40;99.90;;;;;;5068512;28;20227;-67
2022/12/03 06:10:12;;;;;;;14.30;8.07;;;-0.40;99.90;;;;;;5068538;28;20212;-68
2022/12/03 06:12:39;;;;;;;14.77;8.50;;;-0.40;99.90;;;;;;5071450;28;20205;-67
2022/12/03 06:15:07;;;;;;;14.57;8.00;;;-0.40;99.90;;;;;;5068656;28;20220;-67
2022/12/03 06:17:34;;;;;;;15.57;8.23;;;-0.40;99.90;;;;;;5068051;28;20252;-67
2022/12/03 06:20:01;;;;;;;14.90;7.60;;;-0.40;99.90;;;;;;5068256;28;20213;-67
2022/12/03 06:22:28;;;;;;;14.97;8.30;;;-0.40;99.90;;;;;;5080182;28;20206;-67
2022/12/03 06:24:56;;;;;;;18.70;8.50;;;-0.40;99.90;;;;;;5087992;28;20204;-67
2022/12/03 06:27:23;;;;;;;13.90;7.57;;;-0.40;99.90;;;;;;5088310;28;20208;-67
2022/12/03 06:29:49;;;;;;;15.53;8.13;;;-0.40;99.90;;;;;;5088541;28;20264;-68
2022/12/03 06:32:16;;;;;;;15.10;8.43;;;-0.40;99.90;;;;;;5101269;28;20206;-67
2022/12/03 06:34:43;;;;;;;15.33;8.37;;;-0.40;99.90;;;;;;5102247;28;20727;-67
2022/12/03 06:37:10;;;;;;;18.83;8.30;;;-0.40;99.90;;;;;;5108890;28;20200;-68
2022/12/03 06:39:37;;;;;;;15.23;8.50;;;-0.40;99.90;;;;;;5088577;28;20226;-67
2022/12/03 06:42:05;;;;;;;15.40;8.73;;;-0.40;99.90;;;;;;5084181;28;20642;-67
2022/12/03 06:44:32;;;;;;;17.77;9.67;;;-0.40;99.90;;;;;;5087511;28;20212;-68
2022/12/03 06:46:58;;;;;;;14.93;9.27;;;-0.40;99.90;;;;;;5082679;28;20223;-67
2022/12/03 06:49:25;;;;;;;16.30;8.77;;;-0.40;99.90;;;;;;5062940;28;20623;-67
2022/12/03 06:51:52;;;;;;;18.43;9.50;;;-0.40;99.90;;;;;;5060085;28;20205;-67
2022/12/03 06:54:19;;;;;;;18.73;10.13;;;-0.30;99.90;;;;;;5067354;28;20200;-67
2022/12/03 06:56:46;;;;;;;18.27;9.30;;;-0.30;99.90;;;;;;5071126;28;20204;-67
2022/12/03 06:59:14;;;;;;;19.80;11.00;;;-0.40;99.90;;;;;;5074472;28;20242;-67
2022/12/03 07:01:41;;;;;;;17.33;9.63;;;-0.40;99.90;;;;;;5059289;28;20206;-67
2022/12/03 07:04:08;;;;;;;19.80;10.13;;;-0.30;99.90;;;;;;5065816;28;20212;-66
2022/12/03 07:06:35;;;;;;;18.13;10.07;;;-0.30;99.90;;;;;;5053717;28;20211;-67
2022/12/03 07:09:02;;;;;;;21.63;10.77;;;-0.30;99.90;;;;;;5052450;28;20225;-68
2022/12/03 07:11:31;;;;;;;26.50;13.57;;;-0.30;99.90;;;;;;5048598;28;20197;-67
2022/12/03 07:14:01;;;;;;;19.10;11.17;;;-0.30;99.90;;;;;;5043404;28;20209;-67
2022/12/03 07:16:30;;;;;;;24.43;11.97;;;-0.30;99.90;;;;;;5049348;28;20197;-68
2022/12/03 07:18:56;;;;;;;22.00;10.97;;;-0.30;99.90;;;;;;5044410;28;20205;-67
2022/12/03 07:21:23;;;;;;;25.40;12.23;;;-0.30;99.90;;;;;;5035294;28;20309;-66
2022/12/03 07:23:50;;;;;;;29.87;14.13;;;-0.30;99.90;;;;;;5033834;28;20216;-67
2022/12/03 07:26:17;;;;;;;24.03;12.43;;;-0.30;99.90;;;;;;5034521;28;20212;-67
2022/12/03 07:28:43;;;;;;;23.57;12.07;;;-0.30;99.90;;;;;;5050472;28;20319;-68
2022/12/03 07:31:10;;;;;;;27.57;13.17;;;-0.40;99.90;;;;;;5052936;28;20228;-67
2022/12/03 07:33:38;;;;;;;33.27;13.47;;;-0.40;99.90;;;;;;5071624;28;20550;-68
2022/12/03 07:36:06;;;;;;;27.47;13.80;;;-0.50;99.90;;;;;;5073889;28;20201;-67
2022/12/03 07:38:32;;;;;;;28.30;14.03;;;-0.50;99.90;;;;;;5072939;28;20561;-67
2022/12/03 07:40:59;;;;;;;30.93;13.87;;;-0.50;99.90;;;;;;5053067;28;20205;-67
2022/12/03 07:43:26;;;;;;;31.83;15.43;;;-0.50;99.90;;;;;;5061885;28;20725;-66
2022/12/03 07:45:53;;;;;;;27.07;14.23;;;-0.50;99.90;;;;;;5062726;28;20678;-64
2022/12/03 07:48:19;;;;;;;31.30;14.43;;;-0.50;99.90;;;;;;5052147;28;20237;-67
2022/12/03 07:50:48;;;;;;;30.50;15.88;;;-0.60;99.90;;;;;;5049648;28;20455;-66
2022/12/03 07:53:14;;;;;;;29.83;14.93;;;-0.60;99.90;;;;;;5053036;28;20212;-66
2022/12/03 07:55:41;;;;;;;30.47;14.93;;;-0.60;99.90;;;;;;5052841;28;20298;-66
2022/12/03 07:58:08;;;;;;;32.67;15.57;;;-0.60;99.90;;;;;;5052747;28;20206;-68
2022/12/03 08:00:35;;;;;;;32.53;16.17;;;-0.50;99.90;;;;;;5050890;28;20650;-66
2022/12/03 08:03:02;;;;;;;30.67;15.70;;;-0.50;99.90;;;;;;5051332;28;20201;-66
2022/12/03 08:05:29;;;;;;;28.47;15.07;;;-0.50;99.90;;;;;;5047012;28;20710;-66
2022/12/03 08:07:57;;;;;;;28.63;15.07;;;-0.50;99.90;;;;;;5041638;28;20398;-67
2022/12/03 08:10:26;;;;;;;30.23;14.73;;;-0.60;99.90;;;;;;5044587;28;20202;-69
2022/12/03 08:12:52;;;;;;;30.37;14.83;;;-0.50;99.90;;;;;;5043782;28;20215;-66
2022/12/03 08:15:22;;;;;;;27.67;14.67;;;-0.50;99.90;;;;;;5044949;28;20202;-67
2022/12/03 08:17:55;;;;;;;25.43;14.07;;;-0.50;99.90;;;;;;5045738;28;20296;-65
2022/12/03 08:20:24;;;;;;;28.67;14.00;;;-0.50;99.90;;;;;;5044129;28;20229;-66
2022/12/03 08:22:52;;;;;;;27.30;14.63;;;-0.60;99.90;;;;;;5044271;28;20518;-66
2022/12/03 08:25:23;;;;;;;28.13;15.03;;;-0.60;99.90;;;;;;5042339;28;20564;-65
2022/12/03 08:27:51;;;;;;;27.77;15.77;;;-0.60;99.90;;;;;;5042673;28;20193;-69
2022/12/03 08:30:19;;;;;;;30.37;14.77;;;-0.60;99.90;;;;;;5044710;28;20237;-68
2022/12/03 08:32:46;;;;;;;25.13;14.47;;;-0.50;99.90;;;;;;5044175;28;20206;-67
2022/12/03 08:35:15;;;;;;;29.80;15.07;;;-0.50;99.90;;;;;;5041899;28;20224;-66
2022/12/03 08:37:42;;;;;;;28.93;15.53;;;-0.50;99.90;;;;;;5040256;28;20563;-66
2022/12/03 08:40:22;;;;;;;27.50;14.40;;;-0.40;99.90;;;;;;5044778;28;20202;-66
2022/12/03 08:42:49;;;;;;;26.93;13.73;;;-0.40;99.90;;;;;;5043490;28;20194;-67
2022/12/03 08:45:41;;;;;;;27.77;13.93;;;-0.40;99.90;;;;;;5040712;28;20565;-69
2022/12/03 08:48:24;;;;;;;26.33;14.73;;;-0.30;99.90;;;;;;5041736;28;20229;-65
2022/12/03 08:50:51;;;;;;;27.37;14.20;;;-0.30;99.90;;;;;;5050817;28;20201;-65
2022/12/03 08:53:36;;;;;;;28.50;13.33;;;-0.30;99.90;;;;;;5057493;28;20209;-66
2022/12/03 08:56:13;;;;;;;25.97;14.07;;;-0.30;99.90;;;;;;5051347;28;20213;-66
2022/12/03 08:58:41;;;;;;;26.67;13.83;;;-0.30;99.90;;;;;;5050838;28;20582;-66
2022/12/03 09:01:40;;;;;;;39.37;19.63;;;-0.30;99.90;;;;;;5049551;28;20205;-65
2022/12/03 09:04:23;;;;;;;28.73;15.37;;;-0.30;99.90;;;;;;5020269;28;20210;-66
2022/12/03 09:06:50;;;;;;;26.00;14.00;;;-0.30;99.90;;;;;;5029452;28;20236;-67
2022/12/03 09:09:18;;;;;;;26.70;14.67;;;-0.20;99.90;;;;;;5027507;28;20226;-66
2022/12/03 09:11:47;;;;;;;27.30;14.87;;;-0.20;99.90;;;;;;5029393;28;20206;-66
2022/12/03 09:14:16;;;;;;;27.77;13.50;;;-0.30;99.90;;;;;;5028571;28;20210;-66
2022/12/03 09:16:43;;;;;;;27.00;14.50;;;-0.30;99.90;;;;;;5028021;28;20213;-66
2022/12/03 09:19:10;;;;;;;30.00;15.33;;;-0.30;99.90;;;;;;5025844;28;20198;-67
2022/12/03 09:21:37;;;;;;;31.57;14.73;;;-0.30;99.90;;;;;;5029045;28;20695;-67
2022/12/03 09:24:03;;;;;;;30.63;15.20;;;-0.30;99.90;;;;;;5028349;28;20206;-67
2022/12/03 09:26:30;;;;;;;27.70;14.97;;;-0.30;99.90;;;;;;5028886;28;20225;-66
2022/12/03 09:28:58;;;;;;;30.33;16.30;;;-0.30;99.90;;;;;;5028490;28;20237;-67
2022/12/03 09:31:25;;;;;;;29.33;16.33;;;-0.30;99.90;;;;;;5028800;28;20640;-66
2022/12/03 09:33:52;;;;;;;28.43;14.97;;;-0.30;99.90;;;;;;5027716;28;20210;-65
2022/12/03 09:36:19;;;;;;;30.83;15.23;;;-0.30;99.90;;;;;;5028379;28;20216;-68
2022/12/03 09:38:45;;;;;;;30.27;15.50;;;-0.40;99.90;;;;;;5030585;28;20206;-67
2022/12/03 09:41:12;;;;;;;27.40;15.67;;;-0.50;99.90;;;;;;5047190;28;20626;-65
2022/12/03 09:43:39;;;;;;;30.73;16.03;;;-0.50;99.90;;;;;;5051026;28;20206;-65
2022/12/03 09:46:08;;;;;;;36.10;17.93;;;-0.50;99.90;;;;;;5051202;28;20205;-66
2022/12/03 09:48:35;;;;;;;33.23;16.80;;;-0.60;99.90;;;;;;5051022;28;20244;-65
2022/12/03 09:51:03;;;;;;;29.13;16.67;;;-0.50;99.90;;;;;;5050824;28;20213;-69
2022/12/03 09:53:30;;;;;;;30.47;16.33;;;-0.50;99.90;;;;;;5051355;28;20223;-66
2022/12/03 09:55:59;;;;;;;36.07;16.70;;;-0.50;99.90;;;;;;5053705;28;20205;-66
2022/12/03 09:58:28;;;;;;;28.13;15.17;;;-0.50;99.90;;;;;;5050748;28;20208;-66
2022/12/03 10:00:55;;;;;;;29.37;15.50;;;-0.60;99.90;;;;;;5041955;28;20205;-68
2022/12/03 10:03:28;;;;;;;41.53;17.97;;;-0.60;99.90;;;;;;5041137;28;20208;-65
2022/12/03 10:05:55;;;;;;;33.60;16.27;;;-0.60;99.90;;;;;;5050716;28;20235;-68
2022/12/03 10:08:23;;;;;;;38.33;17.20;;;-0.60;99.90;;;;;;5058120;28;20197;-67
2022/12/03 10:10:52;;;;;;;30.83;15.83;;;-0.70;99.90;;;;;;5059389;28;20579;-66
2022/12/03 10:13:24;;;;;;;32.53;17.13;;;-0.80;99.90;;;;;;5054133;28;20225;-66
2022/12/03 10:15:52;;;;;;;28.50;16.00;;;-0.80;99.90;;;;;;5068577;28;20587;-65
2022/12/03 10:18:22;;;;;;;28.17;16.10;;;-0.80;99.90;;;;;;5063088;28;20208;-68
2022/12/03 10:20:51;;;;;;;28.50;16.10;;;-0.80;99.90;;;;;;5051513;28;20215;-69
2022/12/03 10:23:23;;;;;;;32.37;17.90;;;-0.80;99.90;;;;;;5050487;28;20219;-67
2022/12/03 10:25:52;;;;;;;31.17;16.63;;;-0.90;99.90;;;;;;5051746;28;20213;-66
2022/12/03 10:28:33;;;;;;;33.60;17.00;;;-0.90;99.90;;;;;;5055176;28;20300;-67
2022/12/03 10:31:02;;;;;;;35.33;17.70;;;-0.90;99.90;;;;;;5055563;28;20229;-65
2022/12/03 10:33:30;;;;;;;33.40;18.33;;;-0.90;99.90;;;;;;5054356;28;20212;-66
2022/12/03 10:36:14;;;;;;;35.17;18.10;;;-0.90;99.90;;;;;;5055002;28;20693;-67
2022/12/03 14:52:43;;;;;;;29.60;18.53;;;-2.50;99.90;;;;;;5546084;22;20625;-67
2022/12/03 14:55:10;;;;;;;30.13;17.00;;;-2.40;99.90;;;;;;5045949;28;20201;-66
2022/12/03 14:57:37;;;;;;;27.57;15.60;;;-2.30;99.90;;;;;;5047491;28;20197;-67
2022/12/03 15:00:05;;;;;;;26.93;15.80;;;-2.20;99.90;;;;;;5041724;28;20614;-65
2022/12/03 15:02:32;;;;;;;26.33;15.40;;;-2.20;99.90;;;;;;5008700;28;20194;-67
2022/12/03 15:04:58;;;;;;;28.93;15.10;;;-2.10;99.90;;;;;;5027575;28;20194;-67
2022/12/03 15:07:25;;;;;;;27.03;16.07;;;-2.10;99.90;;;;;;5027569;28;20206;-66
2022/12/03 15:09:53;;;;;;;25.53;14.83;;;-2.00;99.90;;;;;;5027171;28;20220;-67
2022/12/03 15:12:20;;;;;;;24.33;14.90;;;-2.00;99.90;;;;;;5026484;28;20218;-75
2022/12/03 15:14:47;;;;;;;22.07;13.60;;;-2.00;99.90;;;;;;5028415;28;20226;-68
2022/12/03 15:17:14;;;;;;;22.97;13.40;;;-2.00;99.90;;;;;;5027354;28;20198;-69
2022/12/03 15:19:40;;;;;;;23.10;13.33;;;-2.00;99.90;;;;;;5027572;28;20202;-69
2022/12/03 15:22:07;;;;;;;22.70;13.67;;;-2.00;99.90;;;;;;5026264;28;20194;-66
2022/12/03 15:24:34;;;;;;;23.57;14.90;;;-1.90;99.90;;;;;;5027358;28;20206;-69
2022/12/03 15:27:02;;;;;;;27.70;14.13;;;-1.90;99.90;;;;;;5027962;28;20569;-68
2022/12/03 15:29:29;;;;;;;23.20;14.03;;;-1.90;99.90;;;;;;5026323;28;20198;-68
2022/12/03 15:31:58;;;;;;;21.87;13.70;;;-1.80;99.90;;;;;;5027511;28;20581;-67
2022/12/03 15:34:24;;;;;;;24.40;14.13;;;-1.80;99.90;;;;;;5024447;28;20206;-69
2022/12/03 15:36:51;;;;;;;28.97;16.20;;;-1.80;99.90;;;;;;5027946;28;20297;-69
2022/12/03 15:39:18;;;;;;;34.97;19.33;;;-1.80;99.90;;;;;;5027575;28;20214;-69
2022/12/03 15:41:45;;;;;;;27.37;16.37;;;-1.80;99.90;;;;;;5027602;28;20222;-70
2022/12/03 15:44:13;;;;;;;26.23;15.10;;;-1.80;99.90;;;;;;5027561;28;20216;-70
2022/12/03 15:46:40;;;;;;;25.07;14.50;;;-1.80;99.90;;;;;;5027952;28;20582;-69
2022/12/03 15:49:07;;;;;;;27.07;15.33;;;-1.70;99.90;;;;;;5026904;28;20688;-69
2022/12/03 15:51:34;;;;;;;27.27;16.10;;;-1.70;99.90;;;;;;5028207;28;20293;-70
2022/12/03 15:54:00;;;;;;;25.63;14.57;;;-1.70;99.90;;;;;;5028127;28;20576;-72
2022/12/03 15:56:27;;;;;;;25.10;13.93;;;-1.60;99.90;;;;;;5028503;28;20548;-71
2022/12/03 15:58:54;;;;;;;26.43;13.67;;;-1.60;99.90;;;;;;5028440;28;20658;-68
2022/12/03 16:01:22;;;;;;;24.47;14.67;;;-1.60;99.90;;;;;;5028150;28;20668;-70
2022/12/03 16:03:49;;;;;;;22.93;14.07;;;-1.50;99.90;;;;;;5014698;28;20224;-70
2022/12/03 16:06:17;;;;;;;24.07;14.23;;;-1.50;99.90;;;;;;5015217;28;20572;-70
2022/12/03 16:08:43;;;;;;;25.37;13.00;;;-1.50;99.90;;;;;;5014510;28;20213;-71
2022/12/03 16:11:10;;;;;;;26.63;14.67;;;-1.50;99.90;;;;;;5014998;28;20233;-72
2022/12/03 16:13:37;;;;;;;25.43;12.97;;;-1.50;99.90;;;;;;5015206;28;20213;-71
2022/12/03 16:16:04;;;;;;;26.87;14.17;;;-1.50;99.90;;;;;;5014771;28;20210;-71
2022/12/03 16:18:32;;;;;;;25.23;13.43;;;-1.50;99.90;;;;;;5014700;28;20203;-71
2022/12/03 16:20:59;;;;;;;25.43;12.80;;;-1.50;99.90;;;;;;5013850;28;20210;-70
2022/12/03 16:23:25;;;;;;;22.53;13.07;;;-1.50;99.90;;;;;;5014210;28;20202;-71
2022/12/03 16:25:52;;;;;;;23.33;13.20;;;-1.50;99.90;;;;;;5014118;28;20210;-70
2022/12/03 16:28:19;;;;;;;23.60;13.73;;;-1.40;99.90;;;;;;5014347;28;20221;-70
2022/12/03 16:30:46;;;;;;;24.23;13.00;;;-1.40;99.90;;;;;;5014060;28;20233;-71
2022/12/03 16:33:12;;;;;;;22.53;13.37;;;-1.40;99.90;;;;;;5013762;28;20205;-72
2022/12/03 16:35:41;;;;;;;21.67;12.83;;;-1.30;99.90;;;;;;5014064;28;20207;-72
2022/12/03 16:38:07;;;;;;;25.70;13.23;;;-1.30;99.90;;;;;;5013414;28;20289;-72
2022/12/03 16:40:34;;;;;;;20.53;12.73;;;-1.30;99.90;;;;;;5011471;28;20229;-72
2022/12/03 16:43:02;;;;;;;21.80;12.00;;;-1.30;99.90;;;;;;5013768;28;20203;-73
2022/12/03 16:48:15;;;;;;;19.57;11.70;;;-1.30;99.90;;;;;;5005539;28;20206;-72
2022/12/03 16:50:43;;;;;;;23.33;12.23;;;-1.30;99.90;;;;;;5014198;28;20202;-73
2022/12/03 16:53:10;;;;;;;22.10;12.03;;;-1.20;99.90;;;;;;5013740;28;20241;-71
2022/12/03 16:55:37;;;;;;;23.10;11.90;;;-1.20;99.90;;;;;;5013477;28;20199;-73
2022/12/03 16:58:04;;;;;;;20.50;11.53;;;-1.20;99.90;;;;;;5013819;28;20217;-72
2022/12/03 17:00:31;;;;;;;20.30;11.87;;;-1.20;99.90;;;;;;5013657;28;20692;-70
2022/12/03 17:02:57;;;;;;;19.87;11.73;;;-1.20;99.90;;;;;;5009628;28;20448;-74
2022/12/03 17:05:24;;;;;;;18.40;10.77;;;-1.20;99.90;;;;;;5013660;28;20202;-70
2022/12/03 17:07:52;;;;;;;19.67;11.13;;;-1.20;99.90;;;;;;5011980;28;20203;-71
2022/12/03 17:10:19;;;;;;;20.80;11.67;;;-1.20;99.90;;;;;;5013180;28;20576;-71
2022/12/03 17:12:46;;;;;;;16.63;10.57;;;-1.10;99.90;;;;;;5014088;28;20313;-68
2022/12/03 17:15:13;;;;;;;16.27;9.83;;;-1.20;99.90;;;;;;5012239;28;20589;-67
2022/12/03 17:17:39;;;;;;;18.30;10.53;;;-1.20;99.90;;;;;;5009538;28;20210;-67
2022/12/03 17:20:07;;;;;;;18.67;10.43;;;-1.20;99.90;;;;;;5011809;28;20203;-70
2022/12/03 17:22:34;;;;;;;18.20;10.60;;;-1.20;99.90;;;;;;5012125;28;20604;-72
2022/12/03 17:25:02;;;;;;;18.17;10.77;;;-1.20;99.90;;;;;;5013189;28;20768;-70
2022/12/03 17:27:29;;;;;;;18.50;10.90;;;-1.20;99.90;;;;;;5009128;28;20217;-73
2022/12/03 17:29:56;;;;;;;16.73;9.90;;;-1.20;99.90;;;;;;5011053;28;20665;-69
2022/12/03 17:32:23;;;;;;;16.87;10.17;;;-1.20;99.90;;;;;;5012708;28;20614;-71
2022/12/03 17:34:49;;;;;;;18.43;10.90;;;-1.20;99.90;;;;;;5011623;28;20207;-70
2022/12/03 17:37:16;;;;;;;17.27;9.47;;;-1.20;99.90;;;;;;5010667;28;20206;-70
2022/12/03 17:39:43;;;;;;;14.90;9.70;;;-1.20;99.90;;;;;;5012513;28;20213;-70
2022/12/03 17:42:11;;;;;;;16.13;10.47;;;-1.20;99.90;;;;;;5011920;28;20194;-71
2022/12/03 17:44:38;;;;;;;17.90;10.90;;;-1.20;99.90;;;;;;5012186;28;20234;-70
2022/12/03 17:47:05;;;;;;;18.53;10.53;;;-1.20;99.90;;;;;;5010166;28;20213;-70
2022/12/03 17:49:31;;;;;;;15.60;10.17;;;-1.20;99.90;;;;;;5013466;28;20799;-70
2022/12/03 17:51:58;;;;;;;18.07;9.77;;;-1.20;99.90;;;;;;5013039;28;20233;-70
2022/12/03 17:54:25;;;;;;;20.10;10.87;;;-1.20;99.90;;;;;;5010766;28;20330;-73
2022/12/03 17:56:52;;;;;;;17.93;11.30;;;-1.30;99.90;;;;;;4992899;28;20207;-71
2022/12/03 17:59:20;;;;;;;18.77;10.83;;;-1.30;99.90;;;;;;4997613;28;20688;-71
2022/12/03 18:01:47;;;;;;;18.77;10.47;;;-1.30;99.90;;;;;;5016838;28;20198;-70
2022/12/03 18:04:13;;;;;;;18.70;10.37;;;-1.20;99.90;;;;;;5013152;28;20217;-71
2022/12/03 18:06:40;;;;;;;18.97;9.90;;;-1.30;99.90;;;;;;5004251;28;20204;-71
2022/12/03 18:09:07;;;;;;;19.60;11.30;;;-1.30;99.90;;;;;;4993211;28;20588;-69
